MET'MAP v2.0
soon released !

Expected late october,
this new version will be
more efficient, smarter,
and hosted on a brand new
server x3 powerfull...
...and still free !


Not compatible ?
Try the mobile version !

LOG IN : | Subscribe | Disclaimer | Who is Orbifly ? |
ICAO code :

TAF - EGOS RAF Shawbury - 14 Nov 2019 14:58 UTC
Data Sources :     NOAA   


- Airport Elevation : 249 ft
- No reported NOTAMs.


EGOS - RAF Shawbury

Latest METAR recorded : 2015/08/11 07:50 EGOS 110750Z 22005KT 9999 FEW018 SCT160 BKN240 13/11 Q1020 BLU NOSIG
TAF TAF EGOS
Valid from the 14 at 12:00 until the 14 at 21:00 UTC


141038Z 1412/1421 01018G28KT 9999 BKN025
TEMPO 1412/1421 -RA BKN020
PROB30
TEMPO 1412/1421 7000 RA
PROB30
TEMPO 1416/1421 SCT012 BKN018

Source NOAA


MET'MAP, your aeronautical weather chart ! - Copyright ORBIFLY December 2007

Programming & Development : Alexandra Zaïnal
Co-Developer : Marc-Olivier Méhu
Technical & hardware support : Manuel Goepfert
Concept & Financing : Baudouin d'Aumeries